Hauptseite
METAR-TAF:

METAR-TAF

Flughäfen :

Passo Rolle, Italien

Breite: 46-18N, Länge: 011-47E, Höhe: 2004 m

Beobachtung

Neuester Wetterbericht von vor 2 Stunden und 6 Minuten, um 16:55 UTC
Wind 10 kt aus Nordost
Temperatur -5°C
Luftfeuchtigkeit 86%
Luftdruck 1007 hPa
Sichtweite: 0150 m
Schnee leicht, Gefrierender Nebel

METAR: LIVR 221655Z 04010KT 0150 -SN FZFG VV/// M05/M07 Q1007 RMK MON INVIS VIS MIN 0150

Zeit: 21:01 (19:01 UTC)


TAF: fehlend

Wetterbeobachtungen und Prognosen von mehr als 4000 Flughäfen (METAR und TAF Bericht).

Die verfügbaren Stationen werden durch gelbe und rote Markierungen auf der Karte dargestellt.

Führen Sie die Maus auf sie, um den Namen der Station zu sehen.

Darauf klicken, um die Beobachtung von Wetterbeobachtungen und Prognosen zu sehen.

Um die Karte zu ändern : klicken Sie auf den grünen Tasten mit einem schwarzen Kreuz Zum Vergrößern, auf den grünen Button mit einem Gedankenstrich zu verkleinern, oder auf die grünen Pfeile für benachbarte Karten.


METAR-TAF: